Time;durP1;ratioP1;P1;durP2;ratioP2;P2;SDS_P1;SDS_P2;PMS_P1;PMS_P2;Temp;Humidity;BMP_temperature;BMP_pressure;BME280_temperature;BME280_humidity;BME280_pressure;Samples;Min_cycle;Max_cycle;Signal;HPM_P1;HPM_P2
2021/04/19 00:00:34;;;;;;;4.00;2.08;;;23.80;39.70;;;;;;5072808;28;20043;-51
2021/04/19 00:02:59;;;;;;;3.75;2.03;;;23.80;39.70;;;;;;5049695;28;20442;-55
2021/04/19 00:05:25;;;;;;;4.20;1.92;;;23.80;39.70;;;;;;5054553;28;20414;-45
2021/04/19 00:07:51;;;;;;;5.10;2.10;;;23.80;39.70;;;;;;5060344;28;20039;-52
2021/04/19 00:10:18;;;;;;;3.63;2.00;;;23.80;39.70;;;;;;5068481;28;20113;-50
2021/04/19 00:12:44;;;;;;;3.17;1.90;;;23.80;39.70;;;;;;5073277;28;20469;-52
2021/04/19 00:15:12;;;;;;;3.67;2.08;;;23.70;39.70;;;;;;5065527;28;20021;-52
2021/04/19 00:17:38;;;;;;;3.13;1.98;;;23.70;39.70;;;;;;5069271;28;20721;-53
2021/04/19 00:20:05;;;;;;;3.55;2.00;;;23.70;39.70;;;;;;5069187;28;20041;-48
2021/04/19 00:22:31;;;;;;;3.00;1.70;;;23.70;39.70;;;;;;5063134;28;20033;-50
2021/04/19 00:24:57;;;;;;;2.85;1.77;;;23.70;39.70;;;;;;5061897;28;20043;-49
2021/04/19 00:27:22;;;;;;;3.30;1.90;;;23.70;39.70;;;;;;5074600;28;20039;-49
2021/04/19 00:29:48;;;;;;;3.45;2.00;;;23.70;39.70;;;;;;5063025;28;20822;-49
2021/04/19 00:32:13;;;;;;;3.33;1.88;;;23.70;39.70;;;;;;5068145;28;20125;-51
2021/04/19 00:34:39;;;;;;;2.80;1.98;;;23.60;39.70;;;;;;5059495;28;20411;-53
2021/04/19 00:37:04;;;;;;;3.70;2.20;;;23.70;39.70;;;;;;5067945;28;20545;-47
2021/04/19 00:39:31;;;;;;;2.75;1.70;;;23.70;39.70;;;;;;5055485;28;20031;-51
2021/04/19 00:41:57;;;;;;;3.13;1.80;;;23.70;39.70;;;;;;5069270;28;20021;-46
2021/04/19 00:44:23;;;;;;;2.40;1.70;;;23.60;39.60;;;;;;5055886;28;20393;-54
2021/04/19 00:46:49;;;;;;;2.97;1.83;;;23.60;39.70;;;;;;5071862;28;20055;-47
2021/04/19 00:49:16;;;;;;;2.70;1.70;;;23.60;39.70;;;;;;5070292;28;20461;-47
2021/04/19 00:51:41;;;;;;;3.45;1.98;;;23.60;39.70;;;;;;5075171;28;20127;-50
2021/04/19 00:54:10;;;;;;;3.47;1.90;;;23.60;39.70;;;;;;5054465;28;20177;-52
2021/04/19 00:56:35;;;;;;;2.90;1.80;;;23.60;39.70;;;;;;5062718;28;20068;-49
2021/04/19 00:59:01;;;;;;;3.35;1.80;;;23.60;39.70;;;;;;5063691;28;20072;-49
2021/04/19 01:01:31;;;;;;;3.05;1.70;;;23.60;39.70;;;;;;5062282;28;20467;-48
2021/04/19 01:03:57;;;;;;;2.85;1.73;;;23.60;39.70;;;;;;5060176;28;20366;-52
2021/04/19 01:06:22;;;;;;;2.88;1.80;;;23.60;39.70;;;;;;5061520;28;20059;-52
2021/04/19 01:08:48;;;;;;;2.47;1.50;;;23.60;39.70;;;;;;5062984;28;20436;-50
2021/04/19 01:11:14;;;;;;;3.20;1.80;;;23.50;39.60;;;;;;5063050;28;20039;-48
2021/04/19 01:13:39;;;;;;;3.38;2.00;;;23.50;39.60;;;;;;5065960;28;20033;-55
2021/04/19 01:16:05;;;;;;;3.28;2.00;;;23.50;39.60;;;;;;5063402;28;20082;-52
2021/04/19 01:18:31;;;;;;;2.97;1.70;;;23.50;39.70;;;;;;5059777;28;20589;-48
2021/04/19 01:20:56;;;;;;;3.10;1.80;;;23.50;39.70;;;;;;5062795;28;20032;-48
2021/04/19 01:23:22;;;;;;;3.28;1.70;;;23.50;39.70;;;;;;5057461;28;20640;-50
2021/04/19 01:25:48;;;;;;;3.03;1.80;;;23.50;39.60;;;;;;5063343;28;20063;-51
2021/04/19 01:28:14;;;;;;;2.95;2.10;;;23.50;40.20;;;;;;5059819;28;20035;-47
2021/04/19 01:30:46;;;;;;;2.47;1.70;;;23.50;39.60;;;;;;5064338;28;20117;-47
2021/04/19 01:33:12;;;;;;;3.25;1.60;;;23.50;39.60;;;;;;5056933;28;20036;-50
2021/04/19 01:35:38;;;;;;;2.28;1.60;;;23.50;40.20;;;;;;5063640;28;20037;-47
2021/04/19 01:38:06;;;;;;;2.70;1.55;;;23.40;39.60;;;;;;5061477;28;20035;-53
2021/04/19 01:40:32;;;;;;;2.42;1.60;;;23.40;39.60;;;;;;5059893;28;20036;-50
2021/04/19 01:42:59;;;;;;;3.28;1.67;;;23.40;39.60;;;;;;5064630;28;20037;-53
2021/04/19 01:45:24;;;;;;;2.70;1.60;;;23.40;39.60;;;;;;5063172;28;20036;-53
2021/04/19 01:47:50;;;;;;;2.40;1.52;;;23.40;39.60;;;;;;5062171;28;20051;-49
2021/04/19 01:50:24;;;;;;;2.67;1.70;;;23.40;39.60;;;;;;5064357;28;20043;-47
2021/04/19 01:52:51;;;;;;;2.75;1.70;;;23.40;39.60;;;;;;5064976;28;20371;-52
2021/04/19 01:55:20;;;;;;;3.33;1.63;;;23.40;39.50;;;;;;5063902;28;20109;-50
2021/04/19 01:57:49;;;;;;;2.45;1.60;;;23.40;39.60;;;;;;5059242;28;20109;-52
2021/04/19 02:00:17;;;;;;;2.28;1.50;;;23.40;39.60;;;;;;5064428;28;20039;-49
2021/04/19 02:02:58;;;;;;;2.60;1.77;;;23.40;39.60;;;;;;5057951;28;20043;-54
2021/04/19 02:05:32;;;;;;;3.38;1.60;;;23.40;39.60;;;;;;5063189;28;20024;-50
2021/04/19 02:08:08;;;;;;;2.95;1.52;;;23.40;39.60;;;;;;5064089;28;20655;-52
2021/04/19 02:10:50;;;;;;;2.33;1.60;;;23.30;39.60;;;;;;5059704;28;20328;-50
2021/04/19 02:13:44;;;;;;;2.90;1.70;;;23.30;39.60;;;;;;5064546;28;20020;-50
2021/04/19 02:16:55;;;;;;;2.83;1.50;;;23.30;39.60;;;;;;5064103;28;20813;-47
2021/04/19 02:19:36;;;;;;;2.72;1.58;;;23.30;39.60;;;;;;5035002;28;20033;-49
2021/04/19 02:22:09;;;;;;;2.80;1.80;;;23.30;39.60;;;;;;5038380;28;20028;-48
2021/04/19 02:24:40;;;;;;;2.47;1.50;;;23.30;39.60;;;;;;5053637;28;20279;-53
2021/04/19 02:27:11;;;;;;;3.05;1.60;;;23.30;39.60;;;;;;5060472;28;20032;-50
2021/04/19 02:29:43;;;;;;;2.42;1.50;;;23.30;39.60;;;;;;5063071;28;20039;-53
2021/04/19 02:32:17;;;;;;;2.58;1.55;;;23.30;39.60;;;;;;5062219;28;20041;-49
2021/04/19 02:34:46;;;;;;;2.15;1.50;;;23.30;39.70;;;;;;5060171;28;20116;-47
2021/04/19 02:37:13;;;;;;;2.27;1.50;;;23.30;39.70;;;;;;5062392;28;20029;-50
2021/04/19 02:39:42;;;;;;;2.40;1.60;;;23.30;39.60;;;;;;5062887;28;20025;-48
2021/04/19 02:42:10;;;;;;;2.00;1.40;;;23.30;39.60;;;;;;5063819;28;20461;-50
2021/04/19 02:44:36;;;;;;;3.03;1.52;;;23.30;39.60;;;;;;5061410;28;20116;-54
2021/04/19 02:47:04;;;;;;;2.88;1.73;;;23.30;39.60;;;;;;5061670;28;20124;-52
2021/04/19 02:49:33;;;;;;;2.65;1.65;;;23.30;39.60;;;;;;5063836;28;20467;-51
2021/04/19 02:52:01;;;;;;;1.90;1.30;;;23.20;39.60;;;;;;5062144;28;20165;-50
2021/04/19 02:54:27;;;;;;;2.38;1.50;;;23.20;39.60;;;;;;5049640;28;20032;-53
2021/04/19 02:56:54;;;;;;;2.50;1.50;;;23.30;39.60;;;;;;5062821;28;20354;-55
2021/04/19 02:59:23;;;;;;;2.45;1.60;;;23.20;39.60;;;;;;5064199;28;20100;-53
2021/04/19 03:01:52;;;;;;;2.20;1.57;;;23.20;39.60;;;;;;5073348;28;20048;-48
2021/04/19 03:04:23;;;;;;;2.53;1.70;;;23.20;39.50;;;;;;5080451;28;20028;-50
2021/04/19 03:06:53;;;;;;;2.20;1.30;;;23.20;39.50;;;;;;5082529;28;20514;-52
2021/04/19 03:09:22;;;;;;;2.97;1.48;;;23.20;39.50;;;;;;5081882;28;20093;-47
2021/04/19 03:12:03;;;;;;;2.30;1.52;;;23.20;39.60;;;;;;5078341;28;20046;-54
2021/04/19 03:14:36;;;;;;;2.55;1.60;;;23.20;39.60;;;;;;5075774;28;20047;-52
2021/04/19 03:17:06;;;;;;;2.67;1.42;;;23.20;39.60;;;;;;5082398;28;20028;-50
2021/04/19 03:19:35;;;;;;;3.08;1.50;;;23.20;39.60;;;;;;5082574;28;20024;-51
2021/04/19 03:22:02;;;;;;;2.40;1.40;;;23.20;39.50;;;;;;5081699;28;20348;-50
2021/04/19 03:24:30;;;;;;;2.20;1.42;;;23.20;39.50;;;;;;5082598;28;20054;-52
2021/04/19 03:26:58;;;;;;;2.33;1.40;;;23.20;39.50;;;;;;5082412;28;20032;-49
2021/04/19 03:29:26;;;;;;;2.63;1.58;;;23.20;39.60;;;;;;5083430;28;20127;-53
2021/04/19 03:32:01;;;;;;;2.15;1.50;;;23.10;39.50;;;;;;5079275;28;20188;-49
2021/04/19 03:34:31;;;;;;;2.20;1.40;;;23.20;39.60;;;;;;5076865;28;20487;-49
2021/04/19 03:37:01;;;;;;;2.20;1.45;;;23.10;39.50;;;;;;5081200;28;20035;-50
2021/04/19 03:39:28;;;;;;;2.00;1.40;;;23.10;39.50;;;;;;5083477;28;20325;-51
2021/04/19 03:41:56;;;;;;;2.47;1.30;;;23.10;39.50;;;;;;5081724;28;20061;-52
2021/04/19 03:44:27;;;;;;;1.90;1.40;;;23.10;39.50;;;;;;5082657;28;20032;-48
2021/04/19 03:46:55;;;;;;;2.45;1.42;;;23.10;39.50;;;;;;5081534;28;20381;-52
2021/04/19 03:49:34;;;;;;;2.15;1.30;;;23.10;39.50;;;;;;5080014;28;20088;-55
2021/04/19 03:52:03;;;;;;;2.03;1.23;;;23.10;39.50;;;;;;5080162;28;20109;-53
2021/04/19 03:54:33;;;;;;;2.00;1.20;;;23.10;39.50;;;;;;5082070;28;20143;-52
2021/04/19 03:57:03;;;;;;;2.00;1.40;;;23.10;39.50;;;;;;5074705;28;20223;-49
2021/04/19 03:59:30;;;;;;;1.95;1.40;;;23.10;39.50;;;;;;5080916;28;20016;-51
2021/04/19 04:02:00;;;;;;;1.70;1.30;;;23.10;39.50;;;;;;5070264;28;20044;-53
2021/04/19 04:04:27;;;;;;;2.33;1.35;;;23.10;39.50;;;;;;5081213;28;20050;-54
2021/04/19 04:06:53;;;;;;;2.60;1.45;;;23.10;39.50;;;;;;5081352;28;20244;-50
2021/04/19 04:09:20;;;;;;;2.33;1.48;;;23.10;39.50;;;;;;5079407;28;20040;-53
2021/04/19 04:11:46;;;;;;;2.55;1.50;;;23.10;39.50;;;;;;5076054;28;20032;-55
2021/04/19 04:14:12;;;;;;;1.88;1.20;;;23.10;39.50;;;;;;5072619;28;20024;-49
2021/04/19 04:16:42;;;;;;;1.83;1.20;;;23.10;39.50;;;;;;5081867;28;20042;-48
2021/04/19 04:19:08;;;;;;;2.33;1.55;;;23.10;39.50;;;;;;5065694;28;20032;-54
2021/04/19 04:21:35;;;;;;;2.13;1.45;;;23.00;39.50;;;;;;5079686;28;20670;-52
2021/04/19 04:24:01;;;;;;;1.98;1.40;;;23.00;39.50;;;;;;5079746;28;20086;-55
2021/04/19 04:26:27;;;;;;;2.10;1.40;;;23.00;39.50;;;;;;5077361;28;20107;-51
2021/04/19 04:28:54;;;;;;;2.25;1.33;;;23.10;39.50;;;;;;5080183;28;20118;-46
2021/04/19 04:31:19;;;;;;;1.90;1.20;;;23.10;39.50;;;;;;5072509;28;20502;-53
2021/04/19 04:33:45;;;;;;;1.63;1.27;;;23.00;39.50;;;;;;5072202;28;20146;-48
2021/04/19 04:36:11;;;;;;;2.15;1.33;;;23.00;39.50;;;;;;5078875;28;20047;-54
2021/04/19 04:38:36;;;;;;;1.77;1.30;;;23.00;39.50;;;;;;5083745;28;20116;-52
2021/04/19 04:41:02;;;;;;;1.50;1.00;;;23.00;39.50;;;;;;5082677;28;20024;-50
2021/04/19 04:43:30;;;;;;;2.08;1.30;;;23.00;39.50;;;;;;5080238;28;21932;-48
2021/04/19 04:46:05;;;;;;;1.90;1.30;;;23.00;39.50;;;;;;5081435;28;20207;-52
2021/04/19 04:48:38;;;;;;;2.05;1.30;;;23.00;39.50;;;;;;5082928;28;20027;-52
2021/04/19 04:51:11;;;;;;;2.08;1.35;;;23.00;39.50;;;;;;5074904;28;20036;-53
2021/04/19 04:53:48;;;;;;;2.53;1.30;;;23.00;39.60;;;;;;5063824;28;20321;-50
2021/04/19 04:56:17;;;;;;;2.08;1.35;;;23.00;39.50;;;;;;5082738;28;20501;-54
2021/04/19 04:58:44;;;;;;;2.35;1.35;;;23.00;39.50;;;;;;5083712;28;20028;-48
2021/04/19 05:01:10;;;;;;;2.00;1.25;;;23.00;39.50;;;;;;5083256;28;20040;-54
2021/04/19 05:03:40;;;;;;;2.17;1.40;;;23.00;39.60;;;;;;5081906;28;20378;-50
2021/04/19 05:06:06;;;;;;;;;;;23.00;39.60;;;;;;5083467;28;20035;-55
2021/04/19 05:08:33;;;;;;;1.75;1.13;;;23.00;39.60;;;;;;5083691;28;19944;-50
2021/04/19 05:10:59;;;;;;;2.13;1.40;;;23.00;39.50;;;;;;5080886;28;20181;-51
2021/04/19 05:13:25;;;;;;;2.20;1.42;;;23.00;39.60;;;;;;5082669;28;20483;-52
2021/04/19 05:15:50;;;;;;;1.90;1.20;;;23.00;39.60;;;;;;5083214;28;20063;-52
2021/04/19 05:18:18;;;;;;;1.95;1.30;;;23.00;39.50;;;;;;5082728;28;20050;-52
2021/04/19 05:20:44;;;;;;;1.80;1.10;;;22.90;39.50;;;;;;5083884;28;21514;-52
2021/04/19 05:23:10;;;;;;;1.60;1.20;;;22.90;39.60;;;;;;5081761;28;20035;-54
2021/04/19 05:25:36;;;;;;;1.85;1.30;;;23.00;39.60;;;;;;5078523;28;20023;-49
2021/04/19 05:28:03;;;;;;;1.98;1.20;;;22.90;39.60;;;;;;5070591;28;20194;-52
2021/04/19 05:30:29;;;;;;;2.17;1.40;;;22.90;39.60;;;;;;5081749;28;20032;-53
2021/04/19 05:32:57;;;;;;;2.85;1.40;;;22.90;39.60;;;;;;5083084;28;20032;-52
2021/04/19 05:35:22;;;;;;;2.50;1.30;;;22.90;39.60;;;;;;5068736;28;20677;-50
2021/04/19 05:37:50;;;;;;;2.10;1.20;;;22.90;39.60;;;;;;5081140;28;20039;-51
2021/04/19 05:40:17;;;;;;;1.90;1.30;;;22.90;39.60;;;;;;5083524;28;20025;-52
2021/04/19 05:42:43;;;;;;;1.65;1.10;;;22.90;39.60;;;;;;5081454;28;20185;-53
2021/04/19 05:45:09;;;;;;;2.28;1.40;;;22.90;39.60;;;;;;5080147;28;20447;-56
2021/04/19 05:47:37;;;;;;;2.47;1.50;;;22.90;39.60;;;;;;5098473;28;20084;-50
2021/04/19 05:50:05;;;;;;;2.30;1.50;;;22.90;39.70;;;;;;5090216;28;20051;-51
2021/04/19 05:52:30;;;;;;;2.88;1.50;;;23.10;39.60;;;;;;5088355;28;20040;-54
2021/04/19 05:54:56;;;;;;;2.70;1.60;;;23.10;39.40;;;;;;5081874;28;20118;-53
2021/04/19 05:57:41;;;;;;;2.85;1.55;;;23.20;39.20;;;;;;5092924;28;20040;-48
2021/04/19 06:00:33;;;;;;;2.72;1.50;;;23.30;39.10;;;;;;5095579;28;20107;-54
2021/04/19 06:03:08;;;;;;;2.63;1.55;;;23.40;39.10;;;;;;5070342;28;20475;-53
2021/04/19 06:05:41;;;;;;;2.75;1.60;;;23.50;38.90;;;;;;5090153;28;20028;-51
2021/04/19 06:08:38;;;;;;;2.95;1.77;;;23.60;38.80;;;;;;5086972;28;20028;-46
2021/04/19 06:11:20;;;;;;;1.88;1.40;;;23.70;38.70;;;;;;5086607;28;20529;-49
2021/04/19 06:13:48;;;;;;;3.47;1.60;;;23.70;38.60;;;;;;5083157;28;20495;-54
2021/04/19 06:16:15;;;;;;;2.53;1.40;;;23.80;38.60;;;;;;5086621;28;20028;-54
2021/04/19 06:18:43;;;;;;;2.50;1.50;;;23.80;38.50;;;;;;5086287;28;20098;-49
2021/04/19 06:21:10;;;;;;;2.97;1.45;;;23.90;38.40;;;;;;5090068;28;20024;-56
2021/04/19 06:23:37;;;;;;;2.30;1.60;;;23.90;38.30;;;;;;5095751;28;20047;-53
2021/04/19 06:26:02;;;;;;;2.20;1.60;;;24.00;38.20;;;;;;5086017;28;20024;-53
2021/04/19 06:28:28;;;;;;;3.17;1.40;;;24.10;38.20;;;;;;5086399;28;20119;-50
2021/04/19 06:30:55;;;;;;;2.40;1.50;;;24.10;38.10;;;;;;5085435;28;20062;-50
2021/04/19 06:33:21;;;;;;;2.17;1.30;;;24.20;38.10;;;;;;5084343;28;20044;-48
2021/04/19 06:35:47;;;;;;;2.50;1.50;;;24.20;38.10;;;;;;5085293;28;20047;-50
2021/04/19 06:38:14;;;;;;;2.42;1.50;;;24.30;38.00;;;;;;5075366;28;20092;-53
2021/04/19 06:40:42;;;;;;;2.33;1.40;;;24.30;38.00;;;;;;5083955;28;20139;-50
2021/04/19 06:43:09;;;;;;;2.78;1.58;;;24.40;37.90;;;;;;5083898;28;20028;-51
2021/04/19 06:45:36;;;;;;;2.80;1.42;;;24.40;37.80;;;;;;5085921;28;20043;-54
2021/04/19 06:48:04;;;;;;;3.50;1.40;;;24.50;37.80;;;;;;5084332;28;20058;-53
2021/04/19 06:50:30;;;;;;;2.22;1.60;;;24.60;37.80;;;;;;5083972;28;20068;-50
2021/04/19 06:52:56;;;;;;;2.05;1.40;;;24.60;37.60;;;;;;5083492;28;20082;-51
2021/04/19 06:55:22;;;;;;;3.10;1.40;;;24.70;37.40;;;;;;5084864;28;20028;-52
2021/04/19 06:57:58;;;;;;;2.60;1.50;;;24.70;37.40;;;;;;5083549;28;20481;-50
2021/04/19 07:00:29;;;;;;;2.42;1.30;;;24.70;37.60;;;;;;5084227;28;20139;-50
2021/04/19 07:02:57;;;;;;;2.03;1.40;;;24.70;37.60;;;;;;5072407;28;20415;-50
2021/04/19 07:05:28;;;;;;;2.05;1.23;;;24.60;37.60;;;;;;5082701;28;20050;-53
2021/04/19 07:08:02;;;;;;;2.47;1.50;;;24.60;37.70;;;;;;5074057;28;20108;-50
2021/04/19 07:10:29;;;;;;;1.92;1.40;;;24.70;37.80;;;;;;5071348;28;20031;-51
2021/04/19 07:12:57;;;;;;;1.83;1.38;;;24.60;37.70;;;;;;5081316;28;20072;-50
2021/04/19 07:15:23;;;;;;;1.85;1.30;;;24.70;37.70;;;;;;5083887;28;20059;-50
2021/04/19 07:17:50;;;;;;;1.77;1.20;;;24.60;37.70;;;;;;5082737;28;20076;-51
2021/04/19 07:20:17;;;;;;;2.30;1.30;;;24.60;37.70;;;;;;5085273;28;20058;-48
2021/04/19 07:22:44;;;;;;;1.75;1.20;;;24.60;37.80;;;;;;5081888;28;20028;-50
2021/04/19 07:25:10;;;;;;;2.67;1.50;;;24.60;37.80;;;;;;5065072;28;20557;-52
2021/04/19 07:27:40;;;;;;;2.20;1.42;;;24.60;37.80;;;;;;5082068;28;20115;-49
2021/04/19 07:30:09;;;;;;;1.98;1.23;;;24.60;37.80;;;;;;5084442;28;20054;-53
2021/04/19 07:32:36;;;;;;;1.90;1.30;;;24.60;37.80;;;;;;5082923;28;20020;-52
2021/04/19 07:35:05;;;;;;;1.95;1.20;;;24.60;37.90;;;;;;5074167;28;20032;-47
2021/04/19 07:37:32;;;;;;;2.88;1.45;;;24.60;37.90;;;;;;5081293;28;20043;-51
2021/04/19 07:39:58;;;;;;;2.15;1.30;;;24.60;37.90;;;;;;5074430;28;20790;-47
2021/04/19 07:42:24;;;;;;;2.10;1.40;;;24.60;37.90;;;;;;5069272;28;20047;-53
2021/04/19 07:44:54;;;;;;;2.15;1.20;;;24.60;37.90;;;;;;5083449;28;20541;-53
2021/04/19 07:47:32;;;;;;;1.60;1.10;;;24.60;37.90;;;;;;5080012;28;20549;-53
2021/04/19 07:50:16;;;;;;;1.90;1.15;;;24.60;38.00;;;;;;5079358;28;20032;-52
2021/04/19 07:53:00;;;;;;;4.07;3.03;;;24.70;38.00;;;;;;5081951;28;20036;-50
2021/04/19 07:55:40;;;;;;;4.45;3.13;;;24.60;36.20;;;;;;5074422;28;20024;-52
2021/04/19 07:58:08;;;;;;;4.80;3.85;;;24.50;35.80;;;;;;5082570;28;20024;-52
2021/04/19 08:00:39;;;;;;;4.95;3.92;;;24.40;36.00;;;;;;5083076;28;20111;-48
2021/04/19 08:03:05;;;;;;;5.15;3.90;;;24.30;35.80;;;;;;5067794;28;20451;-49
2021/04/19 08:05:37;;;;;;;6.03;4.70;;;24.30;35.50;;;;;;5067429;28;20421;-51
2021/04/19 08:08:03;;;;;;;6.13;5.18;;;24.30;35.50;;;;;;5073055;28;20493;-51
2021/04/19 08:10:29;;;;;;;5.50;4.60;;;24.20;35.30;;;;;;5083605;28;20024;-48
2021/04/19 08:13:05;;;;;;;5.70;4.80;;;24.20;35.20;;;;;;5082199;28;20035;-46
2021/04/19 08:15:31;;;;;;;5.47;4.70;;;24.20;35.40;;;;;;5083763;28;20023;-47
2021/04/19 08:18:01;;;;;;;6.30;4.60;;;24.10;35.00;;;;;;5080884;28;20435;-50
2021/04/19 08:20:27;;;;;;;6.47;4.53;;;24.10;34.80;;;;;;5081852;28;20027;-46
2021/04/19 08:23:06;;;;;;;5.50;4.60;;;24.00;35.20;;;;;;5082567;28;20032;-54
2021/04/19 08:25:36;;;;;;;6.07;4.67;;;24.00;34.90;;;;;;5082285;28;20024;-46
2021/04/19 08:28:06;;;;;;;5.15;4.30;;;23.90;34.90;;;;;;5081677;28;20427;-52
2021/04/19 08:30:32;;;;;;;5.43;4.80;;;23.90;34.70;;;;;;5083295;28;20044;-47
2021/04/19 08:32:58;;;;;;;5.45;4.10;;;23.90;34.80;;;;;;5082703;28;20031;-46
2021/04/19 08:35:25;;;;;;;6.03;4.68;;;23.80;35.00;;;;;;5080810;28;20028;-46
2021/04/19 08:37:52;;;;;;;5.30;3.85;;;23.80;35.00;;;;;;5081757;28;20310;-50
2021/04/19 08:40:18;;;;;;;6.25;4.40;;;23.70;34.80;;;;;;5068181;28;20043;-51
2021/04/19 08:42:45;;;;;;;4.82;4.03;;;23.60;34.60;;;;;;5080418;28;20046;-48
2021/04/19 08:45:11;;;;;;;4.85;4.00;;;23.60;35.30;;;;;;5077066;28;20032;-54
2021/04/19 08:47:38;;;;;;;5.68;4.60;;;23.60;35.30;;;;;;5080639;28;20095;-48
2021/04/19 08:50:07;;;;;;;5.32;4.30;;;23.60;35.10;;;;;;5079153;28;20032;-48
2021/04/19 08:52:35;;;;;;;6.38;4.25;;;23.50;35.10;;;;;;5080664;28;20035;-53
2021/04/19 08:55:02;;;;;;;6.03;4.70;;;23.60;35.00;;;;;;5078817;28;20032;-51
2021/04/19 08:57:28;;;;;;;6.20;4.13;;;23.60;34.80;;;;;;5083783;28;20043;-48
2021/04/19 08:59:57;;;;;;;4.85;3.00;;;23.50;35.40;;;;;;5082428;28;20356;-55
2021/04/19 09:02:23;;;;;;;3.97;2.60;;;23.50;35.90;;;;;;5080433;28;20036;-53
2021/04/19 09:05:09;;;;;;;3.53;1.95;;;23.60;36.20;;;;;;5081662;28;20036;-54
2021/04/19 09:07:38;;;;;;;3.35;2.30;;;23.60;36.50;;;;;;5081379;28;20051;-54
2021/04/19 09:10:09;;;;;;;3.53;2.25;;;23.70;36.60;;;;;;5065177;28;20359;-50
2021/04/19 09:12:35;;;;;;;2.70;1.88;;;23.70;36.80;;;;;;5082540;28;20028;-54
2021/04/19 09:15:16;;;;;;;2.97;1.80;;;23.70;36.70;;;;;;5082105;28;20111;-50
2021/04/19 09:17:42;;;;;;;2.88;1.88;;;23.80;36.80;;;;;;5075745;28;20044;-52
2021/04/19 09:20:13;;;;;;;2.95;1.70;;;23.80;36.90;;;;;;5074838;28;20288;-53
2021/04/19 09:22:39;;;;;;;2.70;1.85;;;23.80;36.90;;;;;;5082960;28;20035;-54
2021/04/19 09:25:14;;;;;;;2.95;1.92;;;23.80;36.90;;;;;;5083076;28;20062;-53
2021/04/19 09:27:53;;;;;;;2.70;1.83;;;23.80;36.90;;;;;;5083528;28;20428;-54
2021/04/19 09:30:27;;;;;;;2.80;2.00;;;23.90;37.10;;;;;;5077097;28;20040;-50
2021/04/19 09:33:04;;;;;;;2.70;1.80;;;23.80;37.00;;;;;;5086725;28;20474;-47
2021/04/19 09:35:39;;;;;;;2.50;1.70;;;23.90;37.10;;;;;;5086911;28;20024;-53
2021/04/19 09:38:13;;;;;;;2.22;1.50;;;23.90;37.20;;;;;;5087002;28;20043;-49
2021/04/19 09:40:50;;;;;;;2.60;1.67;;;23.90;37.20;;;;;;5086591;28;20229;-49
2021/04/19 09:43:38;;;;;;;2.42;1.63;;;23.90;37.20;;;;;;5084112;28;20016;-46
2021/04/19 09:46:16;;;;;;;2.35;1.70;;;23.90;37.30;;;;;;5085109;28;20028;-51
2021/04/19 09:48:43;;;;;;;3.00;1.70;;;23.90;37.30;;;;;;5084926;28;20024;-51
2021/04/19 09:51:22;;;;;;;2.75;1.88;;;23.90;37.30;;;;;;5085597;28;20070;-47
2021/04/19 09:53:48;;;;;;;;;;;23.90;37.40;;;;;;5085650;28;20044;-48
2021/04/19 09:56:14;;;;;;;2.53;1.60;;;23.90;37.40;;;;;;5085707;28;19962;-52
2021/04/19 09:58:40;;;;;;;2.45;1.60;;;24.00;37.40;;;;;;5085514;28;20123;-52
2021/04/19 10:01:06;;;;;;;2.30;1.65;;;24.00;37.40;;;;;;5076829;28;20143;-47
2021/04/19 10:03:33;;;;;;;2.63;1.70;;;24.00;37.50;;;;;;5080701;28;20551;-50
2021/04/19 10:06:02;;;;;;;2.40;1.67;;;24.00;37.50;;;;;;5064658;28;20054;-51
2021/04/19 10:08:29;;;;;;;3.17;1.80;;;24.10;37.60;;;;;;5077491;28;20020;-49
2021/04/19 10:10:57;;;;;;;2.58;1.67;;;24.00;37.50;;;;;;5077688;28;20039;-54
2021/04/19 10:13:34;;;;;;;2.40;1.60;;;24.00;37.60;;;;;;5082393;28;20355;-55
2021/04/19 10:16:07;;;;;;;3.92;1.70;;;24.10;37.70;;;;;;5080122;28;20294;-49
2021/04/19 10:18:34;;;;;;;2.13;1.52;;;24.10;37.70;;;;;;5082218;28;20112;-48
2021/04/19 10:21:00;;;;;;;2.70;1.63;;;24.10;37.80;;;;;;5081313;28;20020;-51
2021/04/19 10:23:41;;;;;;;3.05;1.70;;;24.10;37.80;;;;;;5082686;28;20149;-50
2021/04/19 10:26:09;;;;;;;2.28;1.50;;;24.10;37.80;;;;;;5075548;28;20505;-47
2021/04/19 10:28:40;;;;;;;2.15;1.50;;;24.10;37.80;;;;;;5084287;28;20451;-47
2021/04/19 10:31:08;;;;;;;2.08;1.50;;;24.10;37.80;;;;;;5084448;28;20094;-51
2021/04/19 10:33:34;;;;;;;2.42;1.60;;;24.20;37.80;;;;;;5083770;28;20035;-51
2021/04/19 10:36:20;;;;;;;2.20;1.40;;;24.20;37.80;;;;;;5084310;28;20127;-49
2021/04/19 10:38:48;;;;;;;2.30;1.55;;;24.20;38.40;;;;;;5081979;28;20035;-55
2021/04/19 10:41:14;;;;;;;2.97;1.60;;;24.20;37.80;;;;;;5082072;28;20324;-54
2021/04/19 10:43:42;;;;;;;2.70;1.60;;;24.20;37.80;;;;;;5082321;28;20426;-54
2021/04/19 10:46:25;;;;;;;3.22;1.60;;;24.20;37.90;;;;;;5083626;28;20055;-51
2021/04/19 10:48:54;;;;;;;2.83;1.48;;;24.20;37.90;;;;;;5084398;28;20718;-47
2021/04/19 10:51:25;;;;;;;2.65;1.60;;;24.20;37.90;;;;;;5080193;28;20473;-52
2021/04/19 10:53:56;;;;;;;2.90;1.40;;;24.20;37.90;;;;;;5086317;28;20040;-54
2021/04/19 10:56:24;;;;;;;2.70;1.60;;;24.20;37.90;;;;;;5078784;28;20051;-54
2021/04/19 10:58:54;;;;;;;2.40;1.55;;;24.20;38.40;;;;;;5083058;28;20035;-58
2021/04/19 11:01:31;;;;;;;2.53;1.55;;;24.20;37.90;;;;;;5081530;28;20032;-57
2021/04/19 11:04:01;;;;;;;2.78;1.80;;;24.20;37.90;;;;;;5082630;28;20048;-57
2021/04/19 11:06:27;;;;;;;2.53;1.50;;;24.20;37.80;;;;;;5076796;28;20042;-53
2021/04/19 11:08:56;;;;;;;2.35;1.42;;;24.30;37.90;;;;;;5082921;28;20032;-53
2021/04/19 11:11:28;;;;;;;2.10;1.40;;;24.30;37.80;;;;;;5084684;28;20032;-51
2021/04/19 11:14:05;;;;;;;2.97;1.70;;;24.30;37.80;;;;;;5084852;28;20130;-50
2021/04/19 11:16:31;;;;;;;2.20;1.40;;;24.30;37.80;;;;;;5083241;28;20042;-51
2021/04/19 11:18:56;;;;;;;2.10;1.38;;;24.30;37.80;;;;;;5083634;28;20427;-51
2021/04/19 11:21:36;;;;;;;2.97;1.40;;;24.30;37.90;;;;;;5049935;28;20035;-49
2021/04/19 11:24:20;;;;;;;2.58;1.42;;;24.30;37.90;;;;;;5083013;28;20071;-54
2021/04/19 11:26:45;;;;;;;2.75;1.38;;;24.30;37.90;;;;;;5080320;28;20517;-56
2021/04/19 11:29:11;;;;;;;2.97;1.73;;;24.30;37.90;;;;;;5075866;28;20027;-50
2021/04/19 11:31:43;;;;;;;2.38;1.50;;;24.30;37.90;;;;;;5083179;28;20036;-51
2021/04/19 11:34:14;;;;;;;2.20;1.50;;;24.40;38.00;;;;;;5078250;28;20115;-49
2021/04/19 11:36:42;;;;;;;2.28;1.40;;;24.40;38.50;;;;;;5080457;28;20435;-50
2021/04/19 11:39:19;;;;;;;1.88;1.30;;;24.40;38.50;;;;;;5080772;28;20415;-54
2021/04/19 11:41:47;;;;;;;2.72;1.60;;;24.40;38.00;;;;;;5082824;28;20033;-51
2021/04/19 11:44:13;;;;;;;2.60;1.50;;;24.40;38.00;;;;;;5083049;28;20039;-53
2021/04/19 11:46:47;;;;;;;2.63;1.60;;;24.40;38.00;;;;;;5081760;28;20056;-53
2021/04/19 11:49:17;;;;;;;2.72;1.45;;;24.40;38.00;;;;;;5080155;28;20040;-56
2021/04/19 11:51:44;;;;;;;2.55;1.50;;;24.40;38.00;;;;;;5074304;28;20060;-52
2021/04/19 11:54:11;;;;;;;1.98;1.40;;;24.40;38.00;;;;;;5071335;28;20092;-56
2021/04/19 11:56:37;;;;;;;2.25;1.50;;;24.50;38.10;;;;;;5071973;28;20032;-53
2021/04/19 11:59:03;;;;;;;2.22;1.30;;;24.50;38.20;;;;;;5068156;28;20043;-54
2021/04/19 12:01:29;;;;;;;2.88;1.50;;;24.50;38.20;;;;;;5084146;28;20051;-49
2021/04/19 12:03:55;;;;;;;2.25;1.45;;;24.50;38.20;;;;;;5071912;28;20028;-53
2021/04/19 12:06:23;;;;;;;2.53;1.48;;;24.50;38.10;;;;;;5075725;28;20209;-52
2021/04/19 12:08:50;;;;;;;2.30;1.30;;;24.50;38.00;;;;;;5077960;28;20439;-52
2021/04/19 12:11:18;;;;;;;2.45;1.60;;;24.50;38.00;;;;;;5080807;28;20035;-49
2021/04/19 12:13:45;;;;;;;1.98;1.45;;;24.50;38.00;;;;;;5059981;28;20532;-52
2021/04/19 12:16:11;;;;;;;1.83;1.30;;;24.50;38.60;;;;;;5077935;28;20206;-48
2021/04/19 12:18:36;;;;;;;2.03;1.33;;;24.60;38.10;;;;;;5081694;28;20077;-53
2021/04/19 12:21:03;;;;;;;2.05;1.30;;;24.60;38.00;;;;;;5079194;28;20040;-52
2021/04/19 12:23:30;;;;;;;2.10;1.45;;;24.60;38.10;;;;;;5077535;28;20396;-51
2021/04/19 12:25:57;;;;;;;2.00;1.30;;;24.60;38.10;;;;;;5081560;28;20161;-48
2021/04/19 12:28:23;;;;;;;3.45;1.38;;;24.60;38.10;;;;;;5070117;28;20092;-55
2021/04/19 12:30:49;;;;;;;2.30;1.33;;;24.60;38.20;;;;;;5080432;28;20101;-52
2021/04/19 12:33:16;;;;;;;1.85;1.40;;;24.60;38.10;;;;;;5072680;28;20042;-52
2021/04/19 12:35:41;;;;;;;2.22;1.40;;;24.60;38.00;;;;;;5077874;28;20060;-51
2021/04/19 12:38:07;;;;;;;2.58;1.50;;;24.60;38.00;;;;;;5081808;28;20028;-54
2021/04/19 12:40:33;;;;;;;1.90;1.25;;;24.70;38.10;;;;;;5081101;28;20047;-53
2021/04/19 12:42:59;;;;;;;2.13;1.30;;;24.70;38.10;;;;;;5081733;28;20040;-52
2021/04/19 12:45:31;;;;;;;2.65;1.65;;;24.70;38.20;;;;;;5075231;28;20501;-56
2021/04/19 12:47:57;;;;;;;2.65;1.42;;;24.60;38.20;;;;;;5072425;28;20040;-53
2021/04/19 12:50:23;;;;;;;1.92;1.40;;;24.60;38.20;;;;;;5075501;28;20682;-55
2021/04/19 12:52:48;;;;;;;2.53;1.40;;;24.60;38.20;;;;;;5077415;28;20028;-53
2021/04/19 12:55:14;;;;;;;2.45;1.40;;;24.60;38.10;;;;;;5078301;28;20470;-51
2021/04/19 12:57:40;;;;;;;2.50;1.48;;;24.70;38.20;;;;;;5080122;28;20068;-55